Time;durP1;ratioP1;P1;durP2;ratioP2;P2;SDS_P1;SDS_P2;PMS_P1;PMS_P2;Temp;Humidity;BMP_temperature;BMP_pressure;BME280_temperature;BME280_humidity;BME280_pressure;Samples;Min_cycle;Max_cycle;Signal;HPM_P1;HPM_P2
2022/07/09 00:00:24;;;;;;;3.45;1.45;;;;;;;20.44;47.87;100337.53;4413891;32;34101;-73
2022/07/09 00:02:53;;;;;;;5.62;1.70;;;;;;;20.38;48.33;100334.69;4414100;32;33561;-73
2022/07/09 00:05:21;;;;;;;4.15;1.40;;;;;;;20.09;48.75;100347.06;4413960;32;33679;-72
2022/07/09 00:07:49;;;;;;;5.45;1.60;;;;;;;20.41;47.92;100350.06;4413689;32;34899;-74
2022/07/09 00:10:17;;;;;;;5.15;1.40;;;;;;;20.40;47.99;100351.16;4413614;32;33945;-74
2022/07/09 00:12:45;;;;;;;4.15;1.70;;;;;;;20.62;47.62;100352.03;4413039;32;33403;-74
2022/07/09 00:15:12;;;;;;;4.18;1.65;;;;;;;20.53;47.80;100348.00;4412984;32;33903;-75
2022/07/09 00:17:41;;;;;;;5.07;1.70;;;;;;;20.90;47.03;100347.31;4412907;32;34151;-75
2022/07/09 00:20:09;;;;;;;3.92;1.60;;;;;;;20.39;48.01;100349.47;4400317;32;33411;-75
2022/07/09 00:22:37;;;;;;;3.25;1.40;;;;;;;20.69;47.33;100340.69;4400432;32;31675;-74
2022/07/09 00:25:08;;;;;;;3.03;1.52;;;;;;;20.77;47.13;100347.75;4400848;32;32161;-74
2022/07/09 00:27:36;;;;;;;6.28;1.98;;;;;;;20.46;47.90;100354.84;4412627;32;33872;-74
2022/07/09 00:30:04;;;;;;;3.37;1.45;;;;;;;20.66;47.46;100355.97;4412916;32;34607;-74
2022/07/09 00:32:32;;;;;;;3.33;1.48;;;;;;;20.78;47.11;100349.44;4413327;32;34180;-74
2022/07/09 00:34:59;;;;;;;6.45;1.70;;;;;;;20.95;46.79;100350.19;4412643;32;33363;-74
2022/07/09 00:37:27;;;;;;;4.50;1.40;;;;;;;20.62;47.18;100351.19;4425747;32;34333;-74
2022/07/09 00:39:55;;;;;;;3.85;1.48;;;;;;;20.15;48.10;100346.03;4413059;32;33817;-74
2022/07/09 00:42:25;;;;;;;4.32;1.55;;;;;;;20.31;47.81;100338.72;4400334;32;32006;-74
2022/07/09 00:44:56;;;;;;;4.68;1.62;;;;;;;20.48;47.49;100339.56;4412906;32;34495;-74
2022/07/09 00:47:24;;;;;;;4.93;1.75;;;;;;;20.14;48.32;100340.72;4425892;32;35223;-74
2022/07/09 00:49:52;;;;;;;5.68;1.52;;;;;;;20.42;47.53;100337.81;4412972;32;33659;-74
2022/07/09 00:52:23;;;;;;;4.25;1.60;;;;;;;20.45;47.55;100337.28;4413126;32;33226;-74
2022/07/09 00:54:51;;;;;;;5.68;1.60;;;;;;;20.56;47.08;100332.69;4412157;32;33968;-74
2022/07/09 00:57:19;;;;;;;10.32;1.70;;;;;;;20.29;47.74;100327.00;4412489;32;34526;-74
2022/07/09 00:59:47;;;;;;;4.57;1.48;;;;;;;20.37;47.60;100337.69;4412657;32;32374;-74
2022/07/09 01:02:18;;;;;;;6.30;1.62;;;;;;;20.38;47.41;100339.41;4400226;32;31760;-74
2022/07/09 01:04:49;;;;;;;6.93;1.87;;;;;;;20.46;47.22;100335.34;4412588;32;32389;-74
2022/07/09 01:07:17;;;;;;;7.68;1.75;;;;;;;20.33;47.64;100333.75;4412855;32;35175;-74
2022/07/09 01:09:44;;;;;;;5.90;1.90;;;;;;;20.25;47.77;100336.97;4412651;32;33862;-74
2022/07/09 01:12:12;;;;;;;5.30;1.73;;;;;;;20.09;48.31;100332.28;4400143;32;32682;-74
2022/07/09 01:14:42;;;;;;;5.43;1.50;;;;;;;20.21;48.00;100330.22;4412798;32;34716;-74
2022/07/09 01:17:16;;;;;;;4.07;1.70;;;;;;;20.08;48.34;100328.66;4412786;32;34337;-74
2022/07/09 01:19:44;;;;;;;4.95;1.50;;;;;;;20.25;47.92;100328.59;4425407;32;34142;-74
2022/07/09 01:22:15;;;;;;;5.80;1.60;;;;;;;20.24;47.93;100321.34;4412465;32;32160;-74
2022/07/09 01:24:45;;;;;;;4.68;1.80;;;;;;;20.29;47.80;100324.19;4425184;32;34528;-74
2022/07/09 01:27:13;;;;;;;4.90;1.65;;;;;;;20.43;47.22;100317.19;4412502;32;35302;-74
2022/07/09 01:29:43;;;;;;;3.92;1.58;;;;;;;20.17;47.87;100315.94;4412020;32;34468;-74
2022/07/09 01:32:14;;;;;;;5.60;1.60;;;;;;;20.33;47.50;100309.50;4412281;32;31790;-74
2022/07/09 01:34:44;;;;;;;4.53;1.50;;;;;;;20.04;48.12;100306.03;4412572;32;33946;-74
2022/07/09 01:37:13;;;;;;;4.35;1.58;;;;;;;19.88;48.67;100304.13;4412154;32;33630;-74
2022/07/09 01:39:49;;;;;;;4.47;1.67;;;;;;;19.97;48.43;100299.81;4411677;32;33823;-74
2022/07/09 01:42:18;;;;;;;4.55;1.40;;;;;;;19.72;48.86;100307.75;4413461;32;33601;-74
2022/07/09 01:44:48;;;;;;;4.28;1.50;;;;;;;19.62;49.23;100304.81;4438720;32;33638;-74
2022/07/09 01:47:15;;;;;;;6.68;1.70;;;;;;;19.65;49.28;100304.28;4412545;32;35469;-74
2022/07/09 01:49:43;;;;;;;5.62;1.65;;;;;;;19.45;49.65;100313.16;4412339;32;33717;-74
2022/07/09 01:52:11;;;;;;;5.75;1.80;;;;;;;19.69;49.04;100308.25;4412204;32;33081;-74
2022/07/09 01:54:41;;;;;;;4.40;1.60;;;;;;;19.34;49.83;100302.94;4412020;32;33696;-75
2022/07/09 01:57:09;;;;;;;5.43;1.70;;;;;;;19.54;49.31;100311.63;4412109;32;34454;-74
2022/07/09 01:59:37;;;;;;;3.40;1.58;;;;;;;19.76;48.72;100320.06;4411935;32;32561;-74
2022/07/09 02:02:08;;;;;;;5.12;1.70;;;;;;;19.27;49.91;100313.38;4412032;32;34104;-74
2022/07/09 02:04:38;;;;;;;6.72;1.80;;;;;;;18.85;51.13;100304.53;4411916;32;34457;-74
2022/07/09 02:07:08;;;;;;;4.05;1.65;;;;;;;19.07;50.71;100306.34;4412121;32;34280;-74
2022/07/09 02:09:39;;;;;;;5.03;1.77;;;;;;;19.39;49.92;100297.44;4411956;32;34069;-75
2022/07/09 02:12:09;;;;;;;6.30;1.95;;;;;;;19.13;50.58;100310.06;4412234;32;32523;-74
2022/07/09 02:14:37;;;;;;;4.55;1.92;;;;;;;19.37;49.77;100306.06;4411888;32;34955;-74
2022/07/09 02:17:08;;;;;;;8.43;2.05;;;;;;;19.41;49.72;100300.81;4411558;32;34267;-74
2022/07/09 02:19:38;;;;;;;3.92;1.48;;;;;;;19.30;49.92;100298.94;4412016;32;32512;-74
2022/07/09 02:22:06;;;;;;;5.40;1.80;;;;;;;19.48;49.61;100306.22;4411834;32;33076;-74
2022/07/09 02:24:34;;;;;;;5.60;1.70;;;;;;;19.39;49.78;100298.28;4424513;32;33827;-74
2022/07/09 02:27:05;;;;;;;5.57;1.80;;;;;;;19.58;49.30;100306.41;4411494;32;32980;-74
2022/07/09 02:29:34;;;;;;;4.72;1.65;;;;;;;19.64;49.12;100306.22;4411819;32;33161;-74
2022/07/09 02:32:02;;;;;;;3.78;1.87;;;;;;;19.55;49.32;100302.19;4411550;32;31631;-74
2022/07/09 02:34:33;;;;;;;5.70;1.60;;;;;;;19.23;50.24;100303.84;4424138;32;32374;-74
2022/07/09 02:37:01;;;;;;;4.25;1.90;;;;;;;19.33;50.05;100301.25;4411837;32;35284;-74
2022/07/09 02:39:29;;;;;;;3.55;1.80;;;;;;;19.33;49.91;100310.44;4412068;32;33057;-74
2022/07/09 02:41:59;;;;;;;8.40;1.98;;;;;;;19.34;50.10;100309.34;4412042;32;33455;-74
2022/07/09 02:44:27;;;;;;;3.97;1.52;;;;;;;19.47;49.78;100310.09;4411496;32;34027;-74
2022/07/09 02:46:55;;;;;;;4.75;2.08;;;;;;;19.31;50.12;100307.06;4438074;32;34220;-74
2022/07/09 02:49:23;;;;;;;6.82;1.65;;;;;;;19.29;50.39;100308.41;4398971;32;33553;-74
2022/07/09 02:51:57;;;;;;;5.03;1.70;;;;;;;19.09;50.96;100297.75;4413046;32;33985;-74
2022/07/09 02:54:25;;;;;;;5.70;1.73;;;;;;;19.13;50.83;100301.72;4413462;32;32314;-74
2022/07/09 02:56:53;;;;;;;7.25;2.00;;;;;;;19.28;50.37;100302.00;4413964;32;35193;-75
2022/07/09 02:59:23;;;;;;;6.70;1.90;;;;;;;19.05;51.17;100302.94;4413510;32;33571;-74
2022/07/09 03:01:51;;;;;;;7.78;1.80;;;;;;;19.32;50.37;100302.34;4413529;32;32864;-74
2022/07/09 03:04:19;;;;;;;6.07;1.70;;;;;;;19.25;50.59;100305.28;4425971;32;34810;-74
2022/07/09 03:07:05;;;;;;;3.42;1.77;;;;;;;19.24;50.44;100305.53;4404808;32;32874;-74
2022/07/09 03:09:34;;;;;;;3.97;1.90;;;;;;;19.01;51.24;100298.97;4426168;32;34143;-74
2022/07/09 03:12:02;;;;;;;4.28;1.70;;;;;;;18.93;51.56;100301.31;4413376;32;31736;-74
2022/07/09 03:14:30;;;;;;;10.77;2.22;;;;;;;18.92;51.56;100297.69;4413440;32;33459;-74
2022/07/09 03:17:01;;;;;;;5.75;2.30;;;;;;;19.06;51.41;100295.44;4413784;32;35300;-74
2022/07/09 03:19:30;;;;;;;7.00;1.62;;;;;;;19.00;51.47;100302.84;4414014;32;33864;-74
2022/07/09 03:21:58;;;;;;;5.20;1.95;;;;;;;19.23;50.96;100293.53;4413797;32;34246;-74
2022/07/09 03:24:26;;;;;;;5.32;1.83;;;;;;;19.31;50.77;100298.69;4413064;32;32182;-74
2022/07/09 03:26:53;;;;;;;5.80;1.90;;;;;;;19.11;51.31;100298.34;4413186;32;35200;-74
2022/07/09 03:29:22;;;;;;;4.72;2.17;;;;;;;19.21;51.20;100309.66;4413204;32;34189;-74
2022/07/09 03:31:49;;;;;;;6.45;2.00;;;;;;;19.07;51.35;100305.50;4413029;32;32764;-74
2022/07/09 03:34:23;;;;;;;6.22;2.15;;;;;;;19.14;51.38;100306.19;4413551;32;32335;-74
2022/07/09 03:36:51;;;;;;;6.50;2.00;;;;;;;19.25;51.06;100310.84;4413227;32;34076;-75
2022/07/09 03:39:19;;;;;;;6.55;2.03;;;;;;;19.36;50.91;100303.53;4413027;32;32951;-74
2022/07/09 03:41:47;;;;;;;5.70;2.30;;;;;;;19.28;50.96;100313.12;4413632;32;33862;-74
2022/07/09 03:44:14;;;;;;;4.37;1.80;;;;;;;19.09;51.72;100315.28;4413466;32;33760;-74
2022/07/09 03:46:42;;;;;;;5.37;1.65;;;;;;;19.25;51.20;100319.19;4413145;32;34243;-74
2022/07/09 03:49:10;;;;;;;6.75;2.50;;;;;;;19.14;51.48;100317.31;4413417;32;34724;-74
2022/07/09 03:51:38;;;;;;;3.60;1.92;;;;;;;19.37;50.98;100308.00;4413373;32;33352;-74
2022/07/09 03:54:31;;;;;;;5.85;1.90;;;;;;;19.10;51.61;100313.34;4415530;32;32311;-74
2022/07/09 03:56:59;;;;;;;5.87;1.90;;;;;;;19.15;51.46;100316.22;4425914;32;35534;-74
2022/07/09 03:59:26;;;;;;;6.03;2.25;;;;;;;19.18;51.31;100324.06;4413042;32;33567;-74
2022/07/09 04:01:54;;;;;;;4.35;1.95;;;;;;;19.26;51.14;100314.47;4412650;32;31846;-74
2022/07/09 04:04:22;;;;;;;4.47;2.03;;;;;;;19.00;52.03;100313.12;4409252;32;111273;-74
2022/07/09 04:06:50;;;;;;;5.97;1.90;;;;;;;19.26;51.26;100314.47;4425728;32;34542;-74
2022/07/09 04:09:17;;;;;;;7.50;2.33;;;;;;;19.28;51.23;100324.25;4425667;32;33862;-74
2022/07/09 04:11:45;;;;;;;5.35;2.37;;;;;;;19.28;51.24;100326.19;4413251;32;33451;-73
2022/07/09 04:14:14;;;;;;;7.25;2.37;;;;;;;18.99;51.88;100325.37;4413592;32;33253;-73
2022/07/09 04:16:41;;;;;;;5.95;2.20;;;;;;;18.82;52.60;100333.69;4413561;32;35521;-75
2022/07/09 04:19:09;;;;;;;4.30;2.00;;;;;;;18.62;53.03;100330.47;4413447;32;33346;-74
2022/07/09 04:21:40;;;;;;;7.60;2.25;;;;;;;19.08;51.89;100332.22;4413396;32;33943;-80
2022/07/09 04:24:11;;;;;;;6.22;2.53;;;;;;;18.89;52.34;100334.34;4425918;32;33719;-80
2022/07/09 04:26:42;;;;;;;9.27;2.70;;;;;;;18.55;53.22;100324.19;4413149;32;35320;-79
2022/07/09 04:29:10;;;;;;;4.85;2.47;;;;;;;18.53;53.48;100318.84;4412956;32;33601;-79
2022/07/09 04:31:38;;;;;;;6.20;2.65;;;;;;;18.89;52.38;100325.16;4413145;32;32887;-76
2022/07/09 04:34:05;;;;;;;6.25;2.50;;;;;;;18.85;52.39;100335.94;4425627;32;34584;-76
2022/07/09 04:36:33;;;;;;;5.03;2.33;;;;;;;18.86;52.50;100320.09;4439504;32;35089;-77
2022/07/09 04:39:03;;;;;;;6.75;2.47;;;;;;;19.24;51.73;100331.41;4412997;32;34078;-77
2022/07/09 04:41:34;;;;;;;7.87;2.90;;;;;;;18.72;52.39;100331.53;4412895;32;32189;-77
2022/07/09 04:44:01;;;;;;;6.62;2.62;;;;;;;18.41;53.65;100329.16;4439561;32;33864;-73
2022/07/09 04:46:31;;;;;;;9.00;2.92;;;;;;;18.77;52.66;100327.16;4425488;32;34132;-72
2022/07/09 04:48:58;;;;;;;7.82;2.25;;;;;;;19.01;51.90;100331.53;4425366;32;32539;-73
2022/07/09 04:51:26;;;;;;;8.38;2.35;;;;;;;18.41;53.39;100331.94;4412599;32;34134;-75
2022/07/09 04:53:54;;;;;;;5.53;2.60;;;;;;;18.72;52.53;100328.75;4425213;32;33963;-75
2022/07/09 04:56:21;;;;;;;5.12;2.20;;;;;;;18.91;52.02;100328.53;4439212;32;34301;-75
2022/07/09 04:58:52;;;;;;;6.37;2.35;;;;;;;18.80;52.28;100327.53;4425199;32;33414;-75
2022/07/09 05:01:23;;;;;;;4.60;1.95;;;;;;;18.65;52.49;100330.81;4439203;32;33971;-74
2022/07/09 05:03:53;;;;;;;4.18;2.17;;;;;;;18.80;52.39;100332.25;4412740;32;32259;-77
2022/07/09 05:06:21;;;;;;;7.15;2.53;;;;;;;18.80;52.35;100333.09;4412551;32;34472;-78
2022/07/09 05:08:52;;;;;;;6.05;2.10;;;;;;;18.71;52.48;100329.84;4413492;32;34016;-77
2022/07/09 05:11:20;;;;;;;6.45;2.40;;;;;;;18.60;52.98;100332.63;4425290;32;33211;-78
2022/07/09 05:13:47;;;;;;;7.85;2.50;;;;;;;18.26;53.92;100337.16;4424009;32;32398;-77
2022/07/09 05:16:15;;;;;;;6.62;2.37;;;;;;;18.65;52.68;100329.97;4399956;32;32982;-77
2022/07/09 05:18:43;;;;;;;7.00;2.42;;;;;;;18.69;52.74;100328.41;4425591;32;33902;-77
2022/07/09 05:21:11;;;;;;;7.28;2.47;;;;;;;18.95;52.00;100336.13;4412607;32;32267;-77
2022/07/09 05:23:38;;;;;;;7.43;2.50;;;;;;;19.06;51.92;100326.91;4412105;32;34738;-77
2022/07/09 05:26:09;;;;;;;5.43;2.40;;;;;;;18.95;52.26;100324.16;4425109;32;34338;-77
2022/07/09 05:28:39;;;;;;;7.72;2.50;;;;;;;18.90;52.36;100324.91;4425020;32;33883;-77
2022/07/09 05:31:07;;;;;;;7.22;2.50;;;;;;;18.90;52.53;100322.13;4425420;32;33846;-77
2022/07/09 05:33:54;;;;;;;5.87;2.42;;;;;;;18.86;52.43;100328.44;4414462;32;32183;-78
2022/07/09 05:36:22;;;;;;;6.62;2.20;;;;;;;19.36;51.00;100331.34;4412367;32;34561;-77
2022/07/09 05:38:50;;;;;;;6.75;3.20;;;;;;;19.03;52.02;100332.97;4425116;32;34142;-77
2022/07/09 05:41:19;;;;;;;8.20;2.37;;;;;;;19.30;51.16;100330.41;4412399;32;33411;-76
2022/07/09 05:43:49;;;;;;;6.22;2.30;;;;;;;19.22;51.18;100328.03;4425368;32;34595;-77
2022/07/09 05:46:20;;;;;;;6.62;2.80;;;;;;;19.05;51.90;100329.94;4412587;32;34611;-77
2022/07/09 05:48:48;;;;;;;7.25;2.60;;;;;;;19.35;51.01;100327.72;4424912;32;34771;-77
2022/07/09 05:51:16;;;;;;;7.00;2.78;;;;;;;19.48;50.66;100320.16;4412340;32;34082;-78
2022/07/09 05:53:44;;;;;;;8.95;2.92;;;;;;;19.27;51.44;100321.72;4399731;32;32328;-77
2022/07/09 05:56:12;;;;;;;6.78;2.92;;;;;;;19.44;51.11;100321.75;4412185;32;34697;-77
2022/07/09 05:58:39;;;;;;;6.07;2.70;;;;;;;19.23;51.14;100326.94;4412174;32;32693;-77
2022/07/09 06:01:07;;;;;;;6.93;2.37;;;;;;;19.30;51.44;100326.78;4425057;32;33170;-77
2022/07/09 06:03:35;;;;;;;7.05;2.70;;;;;;;19.37;51.27;100333.88;4411513;32;33218;-77
2022/07/09 06:06:03;;;;;;;4.78;2.10;;;;;;;19.12;51.49;100329.78;4424384;32;34394;-77
2022/07/09 06:08:34;;;;;;;8.27;2.70;;;;;;;19.54;51.00;100321.94;4412015;32;34056;-77
2022/07/09 06:11:05;;;;;;;5.97;2.40;;;;;;;19.85;50.08;100332.47;4412355;32;33227;-77
2022/07/09 06:13:33;;;;;;;8.38;2.72;;;;;;;19.98;49.95;100321.00;4412412;32;34463;-77
2022/07/09 06:16:00;;;;;;;7.35;2.78;;;;;;;19.84;49.99;100322.44;4411653;32;32985;-77
2022/07/09 06:18:28;;;;;;;6.10;2.60;;;;;;;20.00;49.65;100326.31;4411978;32;33931;-76
2022/07/09 06:20:57;;;;;;;4.90;2.40;;;;;;;20.20;49.12;100331.31;4424513;32;33464;-77
2022/07/09 06:23:25;;;;;;;4.95;2.42;;;;;;;20.11;49.08;100327.31;4420734;32;33694;-77
2022/07/09 06:25:52;;;;;;;4.75;2.25;;;;;;;20.38;48.53;100331.06;4408375;32;35574;-77
2022/07/09 06:28:25;;;;;;;6.75;2.33;;;;;;;20.23;48.52;100323.28;4414498;32;34788;-77
2022/07/09 06:30:53;;;;;;;8.80;2.67;;;;;;;20.09;49.37;100316.41;4413669;32;33195;-77
2022/07/09 06:33:21;;;;;;;5.12;2.40;;;;;;;20.28;48.91;100325.31;4413513;32;33732;-77
2022/07/09 06:35:51;;;;;;;6.65;2.80;;;;;;;20.55;48.66;100317.06;4413525;32;35470;-77
2022/07/09 06:38:21;;;;;;;5.85;2.22;;;;;;;20.83;47.82;100321.56;4412343;32;32475;-77
2022/07/09 06:40:48;;;;;;;8.50;2.85;;;;;;;20.96;46.99;100318.37;4426449;32;33196;-77
2022/07/09 06:43:36;;;;;;;8.50;2.80;;;;;;;20.83;47.15;100310.41;4410908;32;33616;-76
2022/07/09 06:46:26;;;;;;;5.45;2.30;;;;;;;20.75;47.51;100310.91;4440006;32;35457;-77
2022/07/09 06:49:13;;;;;;;8.85;2.90;;;;;;;21.05;46.85;100314.84;4440191;32;34779;-77
2022/07/09 06:52:01;;;;;;;6.62;2.50;;;;;;;21.03;46.73;100321.81;4425468;32;33374;-77
2022/07/09 06:54:48;;;;;;;5.72;2.30;;;;;;;20.45;48.26;100316.94;4427170;32;34558;-77
2022/07/09 06:57:42;;;;;;;5.70;2.15;;;;;;;20.94;47.12;100320.59;4426399;32;34482;-78
2022/07/09 07:00:43;;;;;;;6.40;2.37;;;;;;;21.24;46.46;100318.16;4415786;32;34896;-76
2022/07/09 07:03:32;;;;;;;5.12;2.30;;;;;;;21.13;46.67;100332.25;4407819;32;31774;-77
2022/07/09 07:06:25;;;;;;;5.50;2.40;;;;;;;21.30;46.63;100322.69;4411682;32;33862;-77
2022/07/09 07:09:15;;;;;;;5.18;2.90;;;;;;;21.42;46.38;100311.34;4414442;32;34686;-78
2022/07/09 07:12:02;;;;;;;5.95;2.85;;;;;;;21.60;45.86;100313.72;4408459;32;34636;-77
2022/07/09 07:14:50;;;;;;;5.97;2.20;;;;;;;21.77;45.42;100313.59;4414149;32;32920;-77
2022/07/09 07:17:49;;;;;;;5.22;2.35;;;;;;;21.91;45.07;100314.81;4439799;32;34622;-78
2022/07/09 07:20:25;;;;;;;7.68;2.40;;;;;;;22.08;45.08;100316.66;4415655;32;33633;-77
2022/07/09 07:22:53;;;;;;;8.48;2.55;;;;;;;22.42;43.95;100311.50;4413314;32;32426;-76
2022/07/09 07:25:20;;;;;;;7.28;2.30;;;;;;;22.20;44.30;100309.72;4413585;32;33294;-77
2022/07/09 07:27:51;;;;;;;7.25;2.37;;;;;;;21.52;45.52;100310.56;4413699;32;33751;-77
2022/07/09 07:30:18;;;;;;;7.12;2.37;;;;;;;21.94;44.72;100319.88;4400534;32;32892;-77
2022/07/09 07:32:49;;;;;;;5.72;2.60;;;;;;;22.51;43.97;100315.47;4413666;32;33383;-77
2022/07/09 07:35:17;;;;;;;6.25;2.78;;;;;;;22.51;43.44;100316.31;4413524;32;33429;-77
2022/07/09 07:37:44;;;;;;;4.90;2.03;;;;;;;22.82;43.29;100308.06;4412900;32;33925;-78
2022/07/09 07:40:13;;;;;;;5.43;2.37;;;;;;;22.65;42.92;100319.47;4413980;32;35315;-76
2022/07/09 07:42:40;;;;;;;5.72;2.37;;;;;;;22.88;43.14;100309.75;4427617;32;34513;-80
2022/07/09 07:45:11;;;;;;;6.03;2.20;;;;;;;22.87;42.62;100305.28;4427268;32;33176;-76
2022/07/09 07:47:39;;;;;;;7.32;2.50;;;;;;;23.04;42.66;100305.88;4413338;32;34563;-77
2022/07/09 07:50:08;;;;;;;4.05;2.30;;;;;;;23.39;43.06;100307.09;4413910;32;33613;-79
2022/07/09 07:52:37;;;;;;;5.03;2.62;;;;;;;23.25;41.56;100296.41;4427149;32;34061;-77
2022/07/09 07:55:32;;;;;;;7.00;2.17;;;;;;;23.38;41.27;100308.19;4414350;32;32523;-79
2022/07/09 07:58:00;;;;;;;7.40;2.37;;;;;;;23.44;41.19;100293.88;4413398;32;33604;-79
2022/07/09 08:00:31;;;;;;;6.37;2.30;;;;;;;23.57;41.11;100293.38;4400561;32;32848;-78
2022/07/09 08:03:01;;;;;;;7.05;2.30;;;;;;;23.82;40.45;100292.53;4413312;32;33561;-79
2022/07/09 08:05:29;;;;;;;6.12;2.20;;;;;;;24.13;39.49;100296.09;4413532;32;34124;-79
2022/07/09 08:07:59;;;;;;;7.50;2.50;;;;;;;23.89;40.10;100297.84;4413190;32;33535;-78
2022/07/09 08:10:30;;;;;;;7.28;2.60;;;;;;;23.94;39.96;100297.84;4413113;32;32835;-79
2022/07/09 08:13:07;;;;;;;8.98;2.30;;;;;;;24.14;40.29;100285.72;4413632;32;33240;-79
2022/07/09 08:15:39;;;;;;;6.12;2.10;;;;;;;24.11;39.30;100287.13;4401388;32;31744;-77
2022/07/09 08:18:12;;;;;;;5.12;2.47;;;;;;;24.20;39.13;100276.16;4400616;32;34549;-78
2022/07/09 08:20:41;;;;;;;3.95;2.17;;;;;;;24.41;38.75;100274.19;4426864;32;35361;-79
2022/07/09 08:23:13;;;;;;;4.87;1.90;;;;;;;24.59;39.05;100259.50;4412995;32;33821;-79
2022/07/09 08:25:43;;;;;;;6.40;2.33;;;;;;;24.59;38.18;100263.16;4426219;32;34272;-78
2022/07/09 08:28:11;;;;;;;4.78;2.10;;;;;;;24.60;38.16;100262.03;4412936;32;32311;-79
2022/07/09 08:30:38;;;;;;;7.62;2.65;;;;;;;24.90;38.09;100260.16;4425450;32;34393;-79
2022/07/09 08:33:06;;;;;;;5.15;2.08;;;;;;;25.17;37.57;100266.22;4412959;32;32732;-77
2022/07/09 08:35:40;;;;;;;4.97;2.22;;;;;;;25.19;36.43;100268.72;4414732;32;33073;-77
2022/07/09 08:38:31;;;;;;;4.32;1.92;;;;;;;25.22;35.85;100268.16;4414175;32;33756;-79
2022/07/09 08:41:31;;;;;;;7.75;1.90;;;;;;;25.17;35.93;100271.81;4427559;32;32752;-78
2022/07/09 08:44:25;;;;;;;5.18;1.80;;;;;;;25.09;35.30;100268.78;4404589;32;32526;-78
2022/07/09 08:47:29;;;;;;;4.12;1.70;;;;;;;25.04;35.72;100260.41;4417670;32;31885;-79
2022/07/09 08:50:20;;;;;;;6.07;1.70;;;;;;;25.44;34.78;100248.84;4413717;32;32688;-80
2022/07/09 08:53:11;;;;;;;4.40;1.75;;;;;;;25.69;34.77;100264.69;4426102;32;34535;-79
2022/07/09 08:56:27;;;;;;;8.77;2.40;;;;;;;25.58;33.71;100254.63;4430384;32;34183;-80
2022/07/09 08:59:15;;;;;;;8.18;1.85;;;;;;;25.81;34.51;100264.28;4412044;32;33721;-80
2022/07/09 09:02:09;;;;;;;4.95;1.48;;;;;;;26.07;34.15;100240.37;4404852;32;32871;-79
2022/07/09 09:05:05;;;;;;;4.67;1.43;;;;;;;26.02;31.44;100256.47;4415550;32;34414;-82
2022/07/09 09:07:59;;;;;;;4.25;1.60;;;;;;;26.20;31.11;100252.88;4415285;32;34861;-81
2022/07/09 09:10:52;;;;;;;6.32;1.95;;;;;;;26.23;33.14;100252.28;4401524;32;31934;-81
2022/07/09 09:13:55;;;;;;;5.12;1.77;;;;;;;26.56;31.75;100237.28;4424712;32;32886;-81
2022/07/09 09:16:52;;;;;;;3.90;1.70;;;;;;;26.39;31.65;100244.53;4413405;32;33189;-81
2022/07/09 09:19:43;;;;;;;6.97;2.25;;;;;;;27.00;31.51;100241.75;4425966;32;34050;-80
2022/07/09 09:22:35;;;;;;;7.62;1.60;;;;;;;27.28;31.66;100239.06;4413372;32;34093;-83
2022/07/09 09:25:42;;;;;;;5.90;1.40;;;;;;;27.25;29.88;100253.78;4426810;32;33724;-83
2022/07/09 09:28:33;;;;;;;5.97;1.62;;;;;;;26.96;29.42;100237.88;4412297;32;32998;-83
2022/07/09 09:31:37;;;;;;;6.60;1.60;;;;;;;26.90;30.31;100236.22;4426089;32;34771;-84
2022/07/09 09:34:13;;;;;;;4.55;1.35;;;;;;;27.10;29.14;100238.78;4425143;32;33275;-84
2022/07/09 09:36:46;;;;;;;3.60;1.62;;;;;;;27.28;29.50;100231.47;4412136;32;33400;-84
2022/07/09 09:39:24;;;;;;;4.65;1.40;;;;;;;27.18;29.54;100226.81;4424956;32;35165;-84
2022/07/09 09:41:59;;;;;;;4.10;1.62;;;;;;;27.50;28.86;100209.06;4425248;32;33697;-84
2022/07/09 09:44:37;;;;;;;3.15;1.50;;;;;;;27.23;29.66;100223.09;4412630;32;32518;-82
2022/07/09 09:47:07;;;;;;;4.60;1.50;;;;;;;27.21;29.48;100217.75;4426559;32;34180;-79
2022/07/09 09:49:37;;;;;;;3.58;1.50;;;;;;;26.91;28.89;100221.00;4412166;32;34311;-78
2022/07/09 09:52:09;;;;;;;4.53;1.60;;;;;;;26.94;28.91;100203.50;4424749;32;33820;-75
2022/07/09 09:54:42;;;;;;;4.70;1.50;;;;;;;27.08;29.04;100207.25;4424980;32;32765;-77
2022/07/09 09:57:13;;;;;;;7.97;1.33;;;;;;;27.59;28.95;100209.22;4412426;32;34452;-78
2022/07/09 09:59:42;;;;;;;15.55;1.95;;;;;;;27.56;28.48;100207.00;4424015;32;34286;-74
2022/07/09 10:02:13;;;;;;;4.30;1.55;;;;;;;28.02;28.55;100197.69;4412053;32;32049;-76
2022/07/09 10:04:43;;;;;;;4.30;1.50;;;;;;;27.42;28.04;100204.13;4412391;32;33361;-75
2022/07/09 10:07:12;;;;;;;4.97;1.50;;;;;;;27.61;27.99;100197.63;4412208;32;33651;-76
2022/07/09 10:10:00;;;;;;;8.23;1.50;;;;;;;27.51;28.21;100199.47;4399487;32;33665;-80
2022/07/09 10:12:44;;;;;;;6.45;1.60;;;;;;;28.21;28.58;100201.25;4438815;32;34546;-74
2022/07/09 10:15:22;;;;;;;5.35;1.50;;;;;;;28.03;27.28;100205.00;4409317;32;32641;-75
2022/07/09 10:17:50;;;;;;;9.57;1.52;;;;;;;28.47;26.41;100201.59;4409222;32;34416;-76
2022/07/09 10:20:49;;;;;;;5.53;1.30;;;;;;;28.33;25.97;100190.31;4409129;32;34594;-77
2022/07/09 10:23:53;;;;;;;4.15;1.15;;;;;;;28.91;26.19;100189.56;4408892;32;33767;-77
2022/07/09 10:26:54;;;;;;;6.05;1.70;;;;;;;28.29;26.14;100188.41;4397236;32;33369;-76
2022/07/09 10:29:57;;;;;;;6.80;1.65;;;;;;;28.45;26.91;100181.28;4408612;32;33893;-76
2022/07/09 10:33:14;;;;;;;4.22;1.30;;;;;;;28.71;25.89;100192.84;4399038;32;33703;-77
2022/07/09 10:36:36;;;;;;;3.20;1.50;;;;;;;29.05;25.02;100176.22;4397555;32;33342;-78
2022/07/09 10:39:45;;;;;;;5.55;1.52;;;;;;;28.88;26.57;100175.25;4388314;32;33267;-76
2022/07/09 10:42:42;;;;;;;5.03;1.70;;;;;;;29.24;24.62;100158.25;4409045;32;32428;-76
2022/07/09 10:46:02;;;;;;;5.05;1.58;;;;;;;29.55;24.54;100161.12;4408619;32;35235;-75
2022/07/09 10:48:35;;;;;;;7.53;1.48;;;;;;;29.48;24.08;100165.25;4408315;32;33058;-75
2022/07/09 10:51:06;;;;;;;3.55;1.35;;;;;;;29.20;24.18;100172.19;4409067;32;33143;-77
2022/07/09 10:53:34;;;;;;;6.82;1.42;;;;;;;29.61;23.75;100162.66;4408695;32;33502;-75
2022/07/09 10:56:01;;;;;;;5.78;1.25;;;;;;;28.88;24.79;100167.59;4409008;32;34209;-77
2022/07/09 10:58:30;;;;;;;3.00;1.30;;;;;;;29.52;24.44;100147.62;4408641;32;33903;-77
2022/07/09 11:01:00;;;;;;;3.53;1.40;;;;;;;29.88;24.08;100147.50;4409071;32;33402;-78
2022/07/09 11:03:30;;;;;;;3.58;1.35;;;;;;;30.07;24.35;100156.56;4408808;32;33325;-78
2022/07/09 11:05:58;;;;;;;3.50;1.40;;;;;;;30.19;24.28;100159.59;4396692;32;34302;-77
2022/07/09 11:08:30;;;;;;;4.55;1.62;;;;;;;30.20;23.43;100158.44;4428118;32;34121;-81
2022/07/09 11:10:58;;;;;;;4.60;1.60;;;;;;;30.61;24.31;100148.72;4426224;32;33977;-77
2022/07/09 11:13:28;;;;;;;4.68;1.27;;;;;;;30.66;23.75;100162.72;4428226;32;34237;-77
2022/07/09 11:16:02;;;;;;;5.15;1.42;;;;;;;30.14;23.33;100148.44;4440987;32;34035;-77
2022/07/09 11:18:32;;;;;;;4.07;1.15;;;;;;;30.13;23.56;100146.75;4429223;32;34303;-77
2022/07/09 11:21:00;;;;;;;4.82;1.40;;;;;;;30.31;23.39;100136.31;4428340;32;32797;-78
2022/07/09 11:23:28;;;;;;;3.05;1.20;;;;;;;29.82;23.09;100143.97;4428053;32;33381;-77
2022/07/09 11:25:56;;;;;;;4.75;1.50;;;;;;;29.78;22.49;100146.63;4415497;32;33900;-77
2022/07/09 11:28:26;;;;;;;5.43;1.37;;;;;;;30.11;22.87;100144.25;4406817;32;33408;-77
2022/07/09 11:31:01;;;;;;;3.17;1.23;;;;;;;30.34;23.39;100128.00;4416043;32;34072;-78
2022/07/09 11:34:10;;;;;;;4.10;1.25;;;;;;;30.52;22.75;100126.03;4421649;32;34494;-77
2022/07/09 11:36:19;;;;;;;1.85;0.90;;;;;;;30.65;22.59;100132.72;4426896;32;34549;-77
2022/07/09 11:38:50;;;;;;;3.25;1.00;;;;;;;30.60;22.68;100119.53;4412718;32;34105;-77
2022/07/09 11:41:47;;;;;;;3.50;1.17;;;;;;;30.77;23.04;100105.37;4411892;32;34483;-77
2022/07/09 11:44:41;;;;;;;2.72;1.12;;;;;;;31.01;22.39;100124.72;4410293;32;34615;-77
2022/07/09 11:47:45;;;;;;;3.97;1.08;;;;;;;31.05;21.87;100111.53;4413508;32;33169;-78
2022/07/09 11:50:39;;;;;;;2.83;1.00;;;;;;;31.14;22.20;100102.22;4414376;32;33680;-77
2022/07/09 11:53:44;;;;;;;4.82;1.33;;;;;;;31.00;21.82;100083.38;4426069;32;33243;-77
2022/07/09 11:56:52;;;;;;;4.65;1.08;;;;;;;31.11;21.55;100084.69;4413046;32;33230;-77